sensor_id;sensor_type;location;lat;lon;timestamp;P1;durP1;ratioP1;P2;durP2;ratioP2
10418;SDS011;5256;48.728;9.140;2023-07-31T00:02:20;0.33;;;0.33;;
10418;SDS011;5256;48.728;9.140;2023-07-31T00:04:45;0.40;;;0.40;;
10418;SDS011;5256;48.728;9.140;2023-07-31T00:07:11;0.30;;;0.30;;
10418;SDS011;5256;48.728;9.140;2023-07-31T00:09:37;0.30;;;0.30;;
10418;SDS011;5256;48.728;9.140;2023-07-31T00:12:02;0.40;;;0.40;;
10418;SDS011;5256;48.728;9.140;2023-07-31T00:14:28;0.47;;;0.47;;
10418;SDS011;5256;48.728;9.140;2023-07-31T00:16:54;0.30;;;0.30;;
10418;SDS011;5256;48.728;9.140;2023-07-31T00:19:19;0.30;;;0.30;;
10418;SDS011;5256;48.728;9.140;2023-07-31T00:21:45;0.40;;;0.40;;
10418;SDS011;5256;48.728;9.140;2023-07-31T00:24:10;0.40;;;0.40;;
10418;SDS011;5256;48.728;9.140;2023-07-31T00:26:36;0.30;;;0.30;;
10418;SDS011;5256;48.728;9.140;2023-07-31T00:29:01;0.30;;;0.30;;
10418;SDS011;5256;48.728;9.140;2023-07-31T00:31:27;0.40;;;0.40;;
10418;SDS011;5256;48.728;9.140;2023-07-31T00:33:52;0.37;;;0.37;;
10418;SDS011;5256;48.728;9.140;2023-07-31T00:36:18;0.33;;;0.33;;
10418;SDS011;5256;48.728;9.140;2023-07-31T00:38:43;0.30;;;0.30;;
10418;SDS011;5256;48.728;9.140;2023-07-31T00:41:09;0.50;;;0.50;;
10418;SDS011;5256;48.728;9.140;2023-07-31T00:43:34;0.40;;;0.40;;
10418;SDS011;5256;48.728;9.140;2023-07-31T00:46:00;0.30;;;0.30;;
10418;SDS011;5256;48.728;9.140;2023-07-31T00:48:26;0.30;;;0.30;;
10418;SDS011;5256;48.728;9.140;2023-07-31T00:50:52;0.40;;;0.40;;
10418;SDS011;5256;48.728;9.140;2023-07-31T00:53:17;0.30;;;0.30;;
10418;SDS011;5256;48.728;9.140;2023-07-31T00:55:43;0.40;;;0.40;;
10418;SDS011;5256;48.728;9.140;2023-07-31T00:58:10;0.47;;;0.47;;
10418;SDS011;5256;48.728;9.140;2023-07-31T01:00:35;0.40;;;0.40;;
10418;SDS011;5256;48.728;9.140;2023-07-31T01:03:01;0.30;;;0.30;;
10418;SDS011;5256;48.728;9.140;2023-07-31T01:08:24;0.30;;;0.30;;
10418;SDS011;5256;48.728;9.140;2023-07-31T01:12:07;0.40;;;0.40;;
10418;SDS011;5256;48.728;9.140;2023-07-31T01:14:07;0.50;;;0.50;;
10418;SDS011;5256;48.728;9.140;2023-07-31T01:16:32;0.40;;;0.40;;
10418;SDS011;5256;48.728;9.140;2023-07-31T01:18:58;0.37;;;0.37;;
10418;SDS011;5256;48.728;9.140;2023-07-31T01:24:09;0.30;;;0.30;;
10418;SDS011;5256;48.728;9.140;2023-07-31T01:26:58;0.50;;;0.50;;
10418;SDS011;5256;48.728;9.140;2023-07-31T01:29:38;0.30;;;0.30;;
10418;SDS011;5256;48.728;9.140;2023-07-31T01:32:12;0.30;;;0.30;;
10418;SDS011;5256;48.728;9.140;2023-07-31T01:34:39;0.40;;;0.40;;
10418;SDS011;5256;48.728;9.140;2023-07-31T01:37:06;0.40;;;0.40;;
10418;SDS011;5256;48.728;9.140;2023-07-31T01:39:32;0.30;;;0.30;;
10418;SDS011;5256;48.728;9.140;2023-07-31T01:41:57;0.40;;;0.40;;
10418;SDS011;5256;48.728;9.140;2023-07-31T01:44:23;0.40;;;0.40;;
10418;SDS011;5256;48.728;9.140;2023-07-31T01:46:48;0.30;;;0.30;;
10418;SDS011;5256;48.728;9.140;2023-07-31T01:49:14;0.40;;;0.40;;
10418;SDS011;5256;48.728;9.140;2023-07-31T01:51:40;0.30;;;0.30;;
10418;SDS011;5256;48.728;9.140;2023-07-31T01:54:05;0.40;;;0.40;;
10418;SDS011;5256;48.728;9.140;2023-07-31T01:56:31;0.33;;;0.33;;
10418;SDS011;5256;48.728;9.140;2023-07-31T01:58:56;0.30;;;0.30;;
10418;SDS011;5256;48.728;9.140;2023-07-31T02:01:22;0.30;;;0.30;;
10418;SDS011;5256;48.728;9.140;2023-07-31T02:03:48;0.30;;;0.30;;
10418;SDS011;5256;48.728;9.140;2023-07-31T02:06:13;0.37;;;0.37;;
10418;SDS011;5256;48.728;9.140;2023-07-31T02:08:39;0.30;;;0.30;;
10418;SDS011;5256;48.728;9.140;2023-07-31T02:11:05;0.40;;;0.40;;
10418;SDS011;5256;48.728;9.140;2023-07-31T02:13:30;0.50;;;0.50;;
10418;SDS011;5256;48.728;9.140;2023-07-31T02:15:56;0.30;;;0.30;;
10418;SDS011;5256;48.728;9.140;2023-07-31T02:18:22;0.30;;;0.30;;
10418;SDS011;5256;48.728;9.140;2023-07-31T02:20:51;0.40;;;0.40;;
10418;SDS011;5256;48.728;9.140;2023-07-31T02:23:17;0.40;;;0.40;;
10418;SDS011;5256;48.728;9.140;2023-07-31T02:25:46;0.30;;;0.30;;
10418;SDS011;5256;48.728;9.140;2023-07-31T02:28:11;0.37;;;0.37;;
10418;SDS011;5256;48.728;9.140;2023-07-31T02:30:37;0.40;;;0.40;;
10418;SDS011;5256;48.728;9.140;2023-07-31T02:33:03;0.40;;;0.40;;
10418;SDS011;5256;48.728;9.140;2023-07-31T02:35:29;0.30;;;0.30;;
10418;SDS011;5256;48.728;9.140;2023-07-31T02:37:55;0.40;;;0.40;;
10418;SDS011;5256;48.728;9.140;2023-07-31T02:40:20;0.30;;;0.30;;
10418;SDS011;5256;48.728;9.140;2023-07-31T02:42:46;0.40;;;0.40;;
10418;SDS011;5256;48.728;9.140;2023-07-31T02:45:11;0.50;;;0.50;;
10418;SDS011;5256;48.728;9.140;2023-07-31T02:47:37;0.40;;;0.40;;
10418;SDS011;5256;48.728;9.140;2023-07-31T02:50:03;0.50;;;0.50;;
10418;SDS011;5256;48.728;9.140;2023-07-31T02:52:29;0.30;;;0.30;;
10418;SDS011;5256;48.728;9.140;2023-07-31T02:54:55;0.40;;;0.40;;
10418;SDS011;5256;48.728;9.140;2023-07-31T02:57:21;0.40;;;0.40;;
10418;SDS011;5256;48.728;9.140;2023-07-31T02:59:46;0.50;;;0.50;;
10418;SDS011;5256;48.728;9.140;2023-07-31T03:02:12;0.40;;;0.40;;
10418;SDS011;5256;48.728;9.140;2023-07-31T03:04:38;0.30;;;0.30;;
10418;SDS011;5256;48.728;9.140;2023-07-31T03:07:03;0.40;;;0.40;;
10418;SDS011;5256;48.728;9.140;2023-07-31T03:09:29;0.50;;;0.50;;
10418;SDS011;5256;48.728;9.140;2023-07-31T03:11:55;0.50;;;0.50;;
10418;SDS011;5256;48.728;9.140;2023-07-31T03:14:21;0.50;;;0.50;;
10418;SDS011;5256;48.728;9.140;2023-07-31T03:16:47;0.40;;;0.40;;
10418;SDS011;5256;48.728;9.140;2023-07-31T03:19:13;0.40;;;0.40;;
10418;SDS011;5256;48.728;9.140;2023-07-31T03:21:38;0.47;;;0.47;;
10418;SDS011;5256;48.728;9.140;2023-07-31T03:24:04;0.40;;;0.40;;
10418;SDS011;5256;48.728;9.140;2023-07-31T03:26:31;0.30;;;0.30;;
10418;SDS011;5256;48.728;9.140;2023-07-31T03:28:56;0.30;;;0.30;;
10418;SDS011;5256;48.728;9.140;2023-07-31T03:31:22;0.30;;;0.30;;
10418;SDS011;5256;48.728;9.140;2023-07-31T03:33:47;0.33;;;0.33;;
10418;SDS011;5256;48.728;9.140;2023-07-31T03:36:13;0.40;;;0.40;;
10418;SDS011;5256;48.728;9.140;2023-07-31T03:38:38;0.40;;;0.40;;
10418;SDS011;5256;48.728;9.140;2023-07-31T03:41:04;0.40;;;0.40;;
10418;SDS011;5256;48.728;9.140;2023-07-31T03:43:31;0.40;;;0.40;;
10418;SDS011;5256;48.728;9.140;2023-07-31T03:45:58;0.30;;;0.30;;
10418;SDS011;5256;48.728;9.140;2023-07-31T03:48:24;0.40;;;0.40;;
10418;SDS011;5256;48.728;9.140;2023-07-31T03:50:50;0.30;;;0.30;;
10418;SDS011;5256;48.728;9.140;2023-07-31T03:53:16;0.30;;;0.30;;
10418;SDS011;5256;48.728;9.140;2023-07-31T03:55:41;0.40;;;0.40;;
10418;SDS011;5256;48.728;9.140;2023-07-31T03:58:07;0.40;;;0.40;;
10418;SDS011;5256;48.728;9.140;2023-07-31T04:00:32;0.40;;;0.40;;
10418;SDS011;5256;48.728;9.140;2023-07-31T04:02:58;0.30;;;0.30;;
10418;SDS011;5256;48.728;9.140;2023-07-31T04:05:23;0.40;;;0.40;;
10418;SDS011;5256;48.728;9.140;2023-07-31T04:07:49;0.40;;;0.40;;
10418;SDS011;5256;48.728;9.140;2023-07-31T04:10:14;0.30;;;0.30;;
10418;SDS011;5256;48.728;9.140;2023-07-31T04:12:40;0.40;;;0.40;;
10418;SDS011;5256;48.728;9.140;2023-07-31T04:15:06;0.30;;;0.30;;
10418;SDS011;5256;48.728;9.140;2023-07-31T04:17:32;0.40;;;0.40;;
10418;SDS011;5256;48.728;9.140;2023-07-31T04:19:57;0.40;;;0.40;;
10418;SDS011;5256;48.728;9.140;2023-07-31T04:22:23;0.30;;;0.30;;
10418;SDS011;5256;48.728;9.140;2023-07-31T04:24:48;0.30;;;0.30;;
10418;SDS011;5256;48.728;9.140;2023-07-31T04:27:14;0.40;;;0.40;;
10418;SDS011;5256;48.728;9.140;2023-07-31T04:29:39;0.40;;;0.40;;
10418;SDS011;5256;48.728;9.140;2023-07-31T04:32:07;0.40;;;0.40;;
10418;SDS011;5256;48.728;9.140;2023-07-31T04:34:33;0.40;;;0.40;;
10418;SDS011;5256;48.728;9.140;2023-07-31T04:36:58;0.40;;;0.40;;
10418;SDS011;5256;48.728;9.140;2023-07-31T04:39:24;0.30;;;0.30;;
10418;SDS011;5256;48.728;9.140;2023-07-31T04:41:49;0.30;;;0.30;;
10418;SDS011;5256;48.728;9.140;2023-07-31T04:44:15;0.30;;;0.30;;
10418;SDS011;5256;48.728;9.140;2023-07-31T04:46:40;0.30;;;0.30;;
10418;SDS011;5256;48.728;9.140;2023-07-31T04:49:06;0.30;;;0.30;;
10418;SDS011;5256;48.728;9.140;2023-07-31T04:51:31;0.40;;;0.40;;
10418;SDS011;5256;48.728;9.140;2023-07-31T04:53:57;0.30;;;0.30;;
10418;SDS011;5256;48.728;9.140;2023-07-31T04:56:23;0.30;;;0.30;;
10418;SDS011;5256;48.728;9.140;2023-07-31T04:58:48;0.37;;;0.37;;
10418;SDS011;5256;48.728;9.140;2023-07-31T05:01:14;0.40;;;0.40;;
10418;SDS011;5256;48.728;9.140;2023-07-31T05:03:39;0.37;;;0.37;;
10418;SDS011;5256;48.728;9.140;2023-07-31T05:06:05;0.30;;;0.30;;
10418;SDS011;5256;48.728;9.140;2023-07-31T05:08:30;0.40;;;0.40;;
10418;SDS011;5256;48.728;9.140;2023-07-31T05:10:56;0.30;;;0.30;;
10418;SDS011;5256;48.728;9.140;2023-07-31T05:13:21;0.30;;;0.30;;
10418;SDS011;5256;48.728;9.140;2023-07-31T05:15:47;0.40;;;0.40;;
10418;SDS011;5256;48.728;9.140;2023-07-31T05:18:14;0.30;;;0.30;;
10418;SDS011;5256;48.728;9.140;2023-07-31T05:20:40;0.40;;;0.40;;
10418;SDS011;5256;48.728;9.140;2023-07-31T05:23:06;0.40;;;0.40;;
10418;SDS011;5256;48.728;9.140;2023-07-31T05:25:32;0.20;;;0.20;;
10418;SDS011;5256;48.728;9.140;2023-07-31T05:27:57;0.40;;;0.40;;
10418;SDS011;5256;48.728;9.140;2023-07-31T05:30:23;0.30;;;0.30;;
10418;SDS011;5256;48.728;9.140;2023-07-31T05:32:48;0.30;;;0.30;;
10418;SDS011;5256;48.728;9.140;2023-07-31T05:35:14;0.40;;;0.40;;
10418;SDS011;5256;48.728;9.140;2023-07-31T05:37:39;0.40;;;0.40;;
10418;SDS011;5256;48.728;9.140;2023-07-31T05:40:05;0.33;;;0.33;;
10418;SDS011;5256;48.728;9.140;2023-07-31T05:42:31;0.40;;;0.40;;
10418;SDS011;5256;48.728;9.140;2023-07-31T05:44:57;0.30;;;0.30;;
10418;SDS011;5256;48.728;9.140;2023-07-31T05:47:22;0.20;;;0.20;;
10418;SDS011;5256;48.728;9.140;2023-07-31T05:49:48;0.30;;;0.30;;
10418;SDS011;5256;48.728;9.140;2023-07-31T05:52:14;0.30;;;0.30;;
10418;SDS011;5256;48.728;9.140;2023-07-31T05:54:41;0.30;;;0.30;;
10418;SDS011;5256;48.728;9.140;2023-07-31T05:57:07;0.33;;;0.33;;
10418;SDS011;5256;48.728;9.140;2023-07-31T05:59:32;0.33;;;0.33;;
10418;SDS011;5256;48.728;9.140;2023-07-31T06:01:58;0.27;;;0.27;;
10418;SDS011;5256;48.728;9.140;2023-07-31T06:04:24;0.30;;;0.30;;
10418;SDS011;5256;48.728;9.140;2023-07-31T06:06:50;0.30;;;0.30;;
10418;SDS011;5256;48.728;9.140;2023-07-31T06:09:16;0.30;;;0.30;;
10418;SDS011;5256;48.728;9.140;2023-07-31T06:11:42;0.30;;;0.30;;
10418;SDS011;5256;48.728;9.140;2023-07-31T06:14:07;0.30;;;0.30;;
10418;SDS011;5256;48.728;9.140;2023-07-31T06:16:33;0.30;;;0.30;;
10418;SDS011;5256;48.728;9.140;2023-07-31T06:18:58;0.27;;;0.27;;
10418;SDS011;5256;48.728;9.140;2023-07-31T06:21:24;0.30;;;0.30;;
10418;SDS011;5256;48.728;9.140;2023-07-31T06:23:49;0.40;;;0.40;;
10418;SDS011;5256;48.728;9.140;2023-07-31T06:26:15;0.20;;;0.20;;
10418;SDS011;5256;48.728;9.140;2023-07-31T06:28:41;0.20;;;0.20;;
10418;SDS011;5256;48.728;9.140;2023-07-31T06:31:07;0.30;;;0.30;;
10418;SDS011;5256;48.728;9.140;2023-07-31T06:33:32;0.30;;;0.30;;
10418;SDS011;5256;48.728;9.140;2023-07-31T06:35:58;0.30;;;0.30;;
10418;SDS011;5256;48.728;9.140;2023-07-31T06:38:24;0.37;;;0.37;;
10418;SDS011;5256;48.728;9.140;2023-07-31T06:40:51;0.40;;;0.40;;
10418;SDS011;5256;48.728;9.140;2023-07-31T06:43:16;0.30;;;0.30;;
10418;SDS011;5256;48.728;9.140;2023-07-31T06:45:42;0.30;;;0.30;;
10418;SDS011;5256;48.728;9.140;2023-07-31T06:48:07;0.20;;;0.20;;
10418;SDS011;5256;48.728;9.140;2023-07-31T06:50:33;0.27;;;0.27;;
10418;SDS011;5256;48.728;9.140;2023-07-31T06:52:59;0.20;;;0.20;;
10418;SDS011;5256;48.728;9.140;2023-07-31T06:55:24;0.30;;;0.30;;
10418;SDS011;5256;48.728;9.140;2023-07-31T06:57:51;0.20;;;0.20;;
10418;SDS011;5256;48.728;9.140;2023-07-31T07:00:18;0.30;;;0.30;;
10418;SDS011;5256;48.728;9.140;2023-07-31T07:02:45;0.23;;;0.23;;
10418;SDS011;5256;48.728;9.140;2023-07-31T07:05:12;0.20;;;0.20;;
10418;SDS011;5256;48.728;9.140;2023-07-31T07:07:38;0.30;;;0.30;;
10418;SDS011;5256;48.728;9.140;2023-07-31T07:10:04;0.20;;;0.20;;
10418;SDS011;5256;48.728;9.140;2023-07-31T07:12:31;0.30;;;0.30;;
10418;SDS011;5256;48.728;9.140;2023-07-31T07:15:00;0.30;;;0.30;;
10418;SDS011;5256;48.728;9.140;2023-07-31T07:17:29;0.20;;;0.20;;
10418;SDS011;5256;48.728;9.140;2023-07-31T07:19:58;0.30;;;0.30;;
10418;SDS011;5256;48.728;9.140;2023-07-31T07:22:24;0.20;;;0.20;;
10418;SDS011;5256;48.728;9.140;2023-07-31T07:24:51;0.20;;;0.20;;
10418;SDS011;5256;48.728;9.140;2023-07-31T07:27:17;0.20;;;0.20;;
10418;SDS011;5256;48.728;9.140;2023-07-31T07:29:42;0.20;;;0.20;;
10418;SDS011;5256;48.728;9.140;2023-07-31T07:32:08;0.20;;;0.20;;
10418;SDS011;5256;48.728;9.140;2023-07-31T07:34:33;0.30;;;0.30;;
10418;SDS011;5256;48.728;9.140;2023-07-31T07:36:59;0.30;;;0.30;;
10418;SDS011;5256;48.728;9.140;2023-07-31T07:39:24;0.30;;;0.30;;
10418;SDS011;5256;48.728;9.140;2023-07-31T07:41:50;0.30;;;0.30;;
10418;SDS011;5256;48.728;9.140;2023-07-31T07:44:16;0.20;;;0.20;;
10418;SDS011;5256;48.728;9.140;2023-07-31T07:46:41;0.20;;;0.20;;
10418;SDS011;5256;48.728;9.140;2023-07-31T07:49:07;0.20;;;0.20;;
10418;SDS011;5256;48.728;9.140;2023-07-31T07:51:32;0.30;;;0.30;;
10418;SDS011;5256;48.728;9.140;2023-07-31T07:53:58;0.10;;;0.10;;
10418;SDS011;5256;48.728;9.140;2023-07-31T07:56:25;0.27;;;0.27;;
10418;SDS011;5256;48.728;9.140;2023-07-31T07:58:51;0.20;;;0.20;;
10418;SDS011;5256;48.728;9.140;2023-07-31T08:01:17;0.20;;;0.20;;
10418;SDS011;5256;48.728;9.140;2023-07-31T08:03:43;0.20;;;0.20;;
10418;SDS011;5256;48.728;9.140;2023-07-31T08:06:09;0.10;;;0.10;;
10418;SDS011;5256;48.728;9.140;2023-07-31T08:08:35;0.20;;;0.20;;
10418;SDS011;5256;48.728;9.140;2023-07-31T08:11:01;0.20;;;0.20;;
10418;SDS011;5256;48.728;9.140;2023-07-31T08:13:27;0.20;;;0.20;;
10418;SDS011;5256;48.728;9.140;2023-07-31T08:15:52;0.20;;;0.20;;
10418;SDS011;5256;48.728;9.140;2023-07-31T08:18:18;0.20;;;0.20;;
10418;SDS011;5256;48.728;9.140;2023-07-31T08:20:44;0.20;;;0.20;;
10418;SDS011;5256;48.728;9.140;2023-07-31T08:23:09;0.30;;;0.30;;
10418;SDS011;5256;48.728;9.140;2023-07-31T08:25:36;0.10;;;0.10;;
10418;SDS011;5256;48.728;9.140;2023-07-31T08:28:02;0.20;;;0.20;;
10418;SDS011;5256;48.728;9.140;2023-07-31T08:30:28;0.20;;;0.20;;
10418;SDS011;5256;48.728;9.140;2023-07-31T08:32:54;0.30;;;0.30;;
10418;SDS011;5256;48.728;9.140;2023-07-31T08:35:19;0.20;;;0.20;;
10418;SDS011;5256;48.728;9.140;2023-07-31T08:37:45;0.20;;;0.20;;
10418;SDS011;5256;48.728;9.140;2023-07-31T08:40:10;0.17;;;0.17;;
10418;SDS011;5256;48.728;9.140;2023-07-31T08:42:45;0.20;;;0.20;;
10418;SDS011;5256;48.728;9.140;2023-07-31T08:45:15;0.20;;;0.20;;
10418;SDS011;5256;48.728;9.140;2023-07-31T08:47:44;0.20;;;0.20;;
10418;SDS011;5256;48.728;9.140;2023-07-31T08:50:11;0.20;;;0.20;;
10418;SDS011;5256;48.728;9.140;2023-07-31T08:52:38;0.10;;;0.10;;
10418;SDS011;5256;48.728;9.140;2023-07-31T08:55:04;0.20;;;0.20;;
10418;SDS011;5256;48.728;9.140;2023-07-31T08:57:31;0.20;;;0.20;;
10418;SDS011;5256;48.728;9.140;2023-07-31T08:59:58;0.20;;;0.20;;
10418;SDS011;5256;48.728;9.140;2023-07-31T09:02:24;0.20;;;0.20;;
10418;SDS011;5256;48.728;9.140;2023-07-31T09:04:55;0.17;;;0.17;;
10418;SDS011;5256;48.728;9.140;2023-07-31T09:07:21;0.20;;;0.20;;
10418;SDS011;5256;48.728;9.140;2023-07-31T09:09:47;0.20;;;0.20;;
10418;SDS011;5256;48.728;9.140;2023-07-31T09:12:12;0.10;;;0.10;;
10418;SDS011;5256;48.728;9.140;2023-07-31T09:14:38;0.10;;;0.10;;
10418;SDS011;5256;48.728;9.140;2023-07-31T09:17:05;0.27;;;0.27;;
10418;SDS011;5256;48.728;9.140;2023-07-31T09:19:34;0.27;;;0.27;;
10418;SDS011;5256;48.728;9.140;2023-07-31T09:22:04;0.20;;;0.20;;
10418;SDS011;5256;48.728;9.140;2023-07-31T09:24:31;0.17;;;0.17;;
10418;SDS011;5256;48.728;9.140;2023-07-31T09:26:58;0.40;;;0.40;;
10418;SDS011;5256;48.728;9.140;2023-07-31T09:29:26;0.10;;;0.10;;
10418;SDS011;5256;48.728;9.140;2023-07-31T09:31:53;0.20;;;0.20;;
10418;SDS011;5256;48.728;9.140;2023-07-31T09:34:19;0.20;;;0.20;;
10418;SDS011;5256;48.728;9.140;2023-07-31T09:36:48;0.20;;;0.20;;
10418;SDS011;5256;48.728;9.140;2023-07-31T09:39:15;0.20;;;0.20;;
10418;SDS011;5256;48.728;9.140;2023-07-31T09:41:43;0.20;;;0.20;;
10418;SDS011;5256;48.728;9.140;2023-07-31T09:44:10;0.30;;;0.30;;
10418;SDS011;5256;48.728;9.140;2023-07-31T09:46:36;0.20;;;0.20;;
10418;SDS011;5256;48.728;9.140;2023-07-31T09:49:09;0.20;;;0.20;;
10418;SDS011;5256;48.728;9.140;2023-07-31T09:51:38;0.20;;;0.20;;
10418;SDS011;5256;48.728;9.140;2023-07-31T09:54:12;0.20;;;0.20;;
10418;SDS011;5256;48.728;9.140;2023-07-31T09:56:48;0.20;;;0.20;;
10418;SDS011;5256;48.728;9.140;2023-07-31T09:59:15;0.20;;;0.20;;
10418;SDS011;5256;48.728;9.140;2023-07-31T10:01:43;0.20;;;0.20;;
10418;SDS011;5256;48.728;9.140;2023-07-31T10:04:11;0.20;;;0.20;;
10418;SDS011;5256;48.728;9.140;2023-07-31T10:06:38;0.10;;;0.10;;
10418;SDS011;5256;48.728;9.140;2023-07-31T10:09:06;0.20;;;0.20;;
10418;SDS011;5256;48.728;9.140;2023-07-31T10:11:34;0.20;;;0.20;;
10418;SDS011;5256;48.728;9.140;2023-07-31T10:14:04;0.20;;;0.20;;
10418;SDS011;5256;48.728;9.140;2023-07-31T10:16:32;0.20;;;0.20;;
10418;SDS011;5256;48.728;9.140;2023-07-31T10:18:59;0.10;;;0.10;;
10418;SDS011;5256;48.728;9.140;2023-07-31T10:21:25;0.13;;;0.13;;
10418;SDS011;5256;48.728;9.140;2023-07-31T10:23:51;0.20;;;0.20;;
10418;SDS011;5256;48.728;9.140;2023-07-31T10:26:17;0.13;;;0.13;;
10418;SDS011;5256;48.728;9.140;2023-07-31T10:28:45;0.10;;;0.10;;
10418;SDS011;5256;48.728;9.140;2023-07-31T10:31:11;0.20;;;0.20;;
10418;SDS011;5256;48.728;9.140;2023-07-31T10:33:38;0.20;;;0.20;;
10418;SDS011;5256;48.728;9.140;2023-07-31T10:36:17;0.10;;;0.10;;
10418;SDS011;5256;48.728;9.140;2023-07-31T10:38:44;0.20;;;0.20;;
10418;SDS011;5256;48.728;9.140;2023-07-31T10:41:10;0.10;;;0.10;;
10418;SDS011;5256;48.728;9.140;2023-07-31T10:43:36;0.17;;;0.17;;
10418;SDS011;5256;48.728;9.140;2023-07-31T10:46:09;0.10;;;0.10;;
10418;SDS011;5256;48.728;9.140;2023-07-31T10:48:39;0.20;;;0.20;;
10418;SDS011;5256;48.728;9.140;2023-07-31T10:51:09;0.20;;;0.20;;
10418;SDS011;5256;48.728;9.140;2023-07-31T10:53:36;0.20;;;0.20;;
10418;SDS011;5256;48.728;9.140;2023-07-31T10:56:07;0.20;;;0.20;;
10418;SDS011;5256;48.728;9.140;2023-07-31T10:58:34;0.20;;;0.20;;
10418;SDS011;5256;48.728;9.140;2023-07-31T11:01:02;0.20;;;0.20;;
10418;SDS011;5256;48.728;9.140;2023-07-31T11:03:42;0.20;;;0.20;;
10418;SDS011;5256;48.728;9.140;2023-07-31T11:06:17;0.10;;;0.10;;
10418;SDS011;5256;48.728;9.140;2023-07-31T11:08:47;0.20;;;0.20;;
10418;SDS011;5256;48.728;9.140;2023-07-31T11:11:15;0.30;;;0.30;;
10418;SDS011;5256;48.728;9.140;2023-07-31T11:16:11;0.20;;;0.20;;
10418;SDS011;5256;48.728;9.140;2023-07-31T11:18:38;0.10;;;0.10;;
10418;SDS011;5256;48.728;9.140;2023-07-31T11:23:41;0.20;;;0.20;;
10418;SDS011;5256;48.728;9.140;2023-07-31T11:26:10;0.20;;;0.20;;
10418;SDS011;5256;48.728;9.140;2023-07-31T11:28:35;0.10;;;0.10;;
10418;SDS011;5256;48.728;9.140;2023-07-31T11:31:02;0.20;;;0.20;;
10418;SDS011;5256;48.728;9.140;2023-07-31T11:33:28;0.33;;;0.33;;
10418;SDS011;5256;48.728;9.140;2023-07-31T11:35:53;0.10;;;0.10;;
10418;SDS011;5256;48.728;9.140;2023-07-31T11:38:23;0.20;;;0.20;;
10418;SDS011;5256;48.728;9.140;2023-07-31T11:40:50;0.20;;;0.20;;
10418;SDS011;5256;48.728;9.140;2023-07-31T11:43:21;0.20;;;0.20;;
10418;SDS011;5256;48.728;9.140;2023-07-31T11:45:51;0.20;;;0.20;;
10418;SDS011;5256;48.728;9.140;2023-07-31T11:50:54;0.20;;;0.20;;
10418;SDS011;5256;48.728;9.140;2023-07-31T11:53:26;0.10;;;0.10;;
10418;SDS011;5256;48.728;9.140;2023-07-31T11:56:05;0.10;;;0.10;;
10418;SDS011;5256;48.728;9.140;2023-07-31T11:58:32;0.20;;;0.20;;
10418;SDS011;5256;48.728;9.140;2023-07-31T12:01:00;0.20;;;0.20;;
10418;SDS011;5256;48.728;9.140;2023-07-31T12:03:26;0.20;;;0.20;;
10418;SDS011;5256;48.728;9.140;2023-07-31T12:05:53;0.20;;;0.20;;
10418;SDS011;5256;48.728;9.140;2023-07-31T12:08:20;0.20;;;0.20;;
10418;SDS011;5256;48.728;9.140;2023-07-31T12:10:47;0.10;;;0.10;;
10418;SDS011;5256;48.728;9.140;2023-07-31T12:13:25;0.10;;;0.10;;
10418;SDS011;5256;48.728;9.140;2023-07-31T12:15:55;0.20;;;0.20;;
10418;SDS011;5256;48.728;9.140;2023-07-31T12:18:22;0.20;;;0.20;;
10418;SDS011;5256;48.728;9.140;2023-07-31T12:20:49;0.27;;;0.27;;
10418;SDS011;5256;48.728;9.140;2023-07-31T12:23:20;0.10;;;0.10;;
10418;SDS011;5256;48.728;9.140;2023-07-31T12:26:08;0.20;;;0.20;;
10418;SDS011;5256;48.728;9.140;2023-07-31T12:28:40;0.20;;;0.20;;
10418;SDS011;5256;48.728;9.140;2023-07-31T12:31:08;0.17;;;0.17;;
10418;SDS011;5256;48.728;9.140;2023-07-31T12:33:36;0.10;;;0.10;;
10418;SDS011;5256;48.728;9.140;2023-07-31T12:36:12;0.20;;;0.20;;
10418;SDS011;5256;48.728;9.140;2023-07-31T12:38:39;0.10;;;0.10;;
10418;SDS011;5256;48.728;9.140;2023-07-31T12:41:05;0.20;;;0.20;;
10418;SDS011;5256;48.728;9.140;2023-07-31T12:43:34;0.20;;;0.20;;
10418;SDS011;5256;48.728;9.140;2023-07-31T12:46:00;0.30;;;0.30;;
10418;SDS011;5256;48.728;9.140;2023-07-31T12:48:25;0.10;;;0.10;;
10418;SDS011;5256;48.728;9.140;2023-07-31T12:50:51;0.20;;;0.20;;
10418;SDS011;5256;48.728;9.140;2023-07-31T12:53:16;0.20;;;0.20;;
10418;SDS011;5256;48.728;9.140;2023-07-31T12:55:42;0.20;;;0.20;;
10418;SDS011;5256;48.728;9.140;2023-07-31T12:58:08;0.10;;;0.10;;
10418;SDS011;5256;48.728;9.140;2023-07-31T13:00:33;0.20;;;0.20;;
10418;SDS011;5256;48.728;9.140;2023-07-31T13:03:00;0.10;;;0.10;;
10418;SDS011;5256;48.728;9.140;2023-07-31T13:05:27;0.20;;;0.20;;
10418;SDS011;5256;48.728;9.140;2023-07-31T13:07:53;0.17;;;0.17;;
10418;SDS011;5256;48.728;9.140;2023-07-31T13:10:19;0.10;;;0.10;;
10418;SDS011;5256;48.728;9.140;2023-07-31T13:12:44;0.10;;;0.10;;
10418;SDS011;5256;48.728;9.140;2023-07-31T13:15:10;0.17;;;0.17;;
10418;SDS011;5256;48.728;9.140;2023-07-31T13:17:36;0.20;;;0.20;;
10418;SDS011;5256;48.728;9.140;2023-07-31T13:20:01;0.10;;;0.10;;
10418;SDS011;5256;48.728;9.140;2023-07-31T13:22:28;0.10;;;0.10;;
10418;SDS011;5256;48.728;9.140;2023-07-31T13:24:54;0.10;;;0.10;;
10418;SDS011;5256;48.728;9.140;2023-07-31T13:27:19;0.10;;;0.10;;
10418;SDS011;5256;48.728;9.140;2023-07-31T13:29:46;0.20;;;0.20;;
10418;SDS011;5256;48.728;9.140;2023-07-31T13:32:17;0.20;;;0.20;;
10418;SDS011;5256;48.728;9.140;2023-07-31T13:34:44;0.10;;;0.10;;
10418;SDS011;5256;48.728;9.140;2023-07-31T13:37:10;0.10;;;0.10;;
10418;SDS011;5256;48.728;9.140;2023-07-31T13:39:36;0.10;;;0.10;;
10418;SDS011;5256;48.728;9.140;2023-07-31T13:42:03;0.10;;;0.10;;
10418;SDS011;5256;48.728;9.140;2023-07-31T13:44:28;0.20;;;0.20;;
10418;SDS011;5256;48.728;9.140;2023-07-31T13:46:54;0.20;;;0.20;;
10418;SDS011;5256;48.728;9.140;2023-07-31T13:49:20;0.10;;;0.10;;
10418;SDS011;5256;48.728;9.140;2023-07-31T13:51:45;0.20;;;0.20;;
10418;SDS011;5256;48.728;9.140;2023-07-31T13:54:11;0.23;;;0.23;;
10418;SDS011;5256;48.728;9.140;2023-07-31T13:56:37;0.10;;;0.10;;
10418;SDS011;5256;48.728;9.140;2023-07-31T13:59:06;0.20;;;0.20;;
10418;SDS011;5256;48.728;9.140;2023-07-31T14:01:31;0.10;;;0.10;;
10418;SDS011;5256;48.728;9.140;2023-07-31T14:03:57;0.20;;;0.20;;
10418;SDS011;5256;48.728;9.140;2023-07-31T14:06:23;0.10;;;0.10;;
10418;SDS011;5256;48.728;9.140;2023-07-31T14:08:48;0.30;;;0.30;;
10418;SDS011;5256;48.728;9.140;2023-07-31T14:11:14;0.17;;;0.17;;
10418;SDS011;5256;48.728;9.140;2023-07-31T14:13:40;0.20;;;0.20;;
10418;SDS011;5256;48.728;9.140;2023-07-31T14:16:05;0.20;;;0.20;;
10418;SDS011;5256;48.728;9.140;2023-07-31T14:18:31;0.30;;;0.30;;
10418;SDS011;5256;48.728;9.140;2023-07-31T14:20:57;0.20;;;0.20;;
10418;SDS011;5256;48.728;9.140;2023-07-31T14:23:22;0.17;;;0.17;;
10418;SDS011;5256;48.728;9.140;2023-07-31T14:25:48;0.20;;;0.20;;
10418;SDS011;5256;48.728;9.140;2023-07-31T14:28:13;0.10;;;0.10;;
10418;SDS011;5256;48.728;9.140;2023-07-31T14:30:39;0.17;;;0.17;;
10418;SDS011;5256;48.728;9.140;2023-07-31T14:33:04;0.20;;;0.20;;
10418;SDS011;5256;48.728;9.140;2023-07-31T14:35:30;0.30;;;0.30;;
10418;SDS011;5256;48.728;9.140;2023-07-31T14:37:56;0.20;;;0.20;;
10418;SDS011;5256;48.728;9.140;2023-07-31T14:40:21;0.10;;;0.10;;
10418;SDS011;5256;48.728;9.140;2023-07-31T14:42:47;0.20;;;0.20;;
10418;SDS011;5256;48.728;9.140;2023-07-31T14:45:13;0.17;;;0.17;;
10418;SDS011;5256;48.728;9.140;2023-07-31T14:47:38;0.20;;;0.20;;
10418;SDS011;5256;48.728;9.140;2023-07-31T14:50:04;0.13;;;0.13;;
10418;SDS011;5256;48.728;9.140;2023-07-31T14:52:30;0.10;;;0.10;;
10418;SDS011;5256;48.728;9.140;2023-07-31T14:54:56;0.10;;;0.10;;
10418;SDS011;5256;48.728;9.140;2023-07-31T14:57:21;0.20;;;0.20;;
10418;SDS011;5256;48.728;9.140;2023-07-31T14:59:47;0.10;;;0.10;;
10418;SDS011;5256;48.728;9.140;2023-07-31T15:02:13;0.20;;;0.20;;
10418;SDS011;5256;48.728;9.140;2023-07-31T15:04:39;0.20;;;0.20;;
10418;SDS011;5256;48.728;9.140;2023-07-31T15:07:05;0.17;;;0.17;;
10418;SDS011;5256;48.728;9.140;2023-07-31T15:09:31;0.20;;;0.20;;
10418;SDS011;5256;48.728;9.140;2023-07-31T15:11:57;0.20;;;0.20;;